A- A+ FrançaisEnglishEspañol中国

le plus proche LFBT Tarbes-Lourdes-PyrénéesLFBE Bergerac-RoumaniereLFPV Villacoublay-Velizy LFBY Dax-Seyresse

manche à air

La météo aéronautique pour les pilotes, la préparation du vol avec les METAR (METeorological Aerodrome Report, message d'observation des conditions météorologiques pour l'aviation) et Les TAF (Terminal Aerodrome Forecast : message de prévision à court terme des conditions météorologiques pour l'aviation). Et les autres ressources comme les VAC (Visual Approch Chart) et les NOTAM (Notice To Airman) pour préprer les vols.

Aéroport Zielona Gora Babimost (Pologne) / OACI EPZG/ IATA IEG

L'altitude de l'aéroport Zielona Gora Babimost est de 59 m=194 ft. Il est situé à proximité de Babimost (Pologne). La météo générale à 5 jours est disponible pour Świebodzin situé à 21.7 km.

METAR de l'aéroport Zielona Gora Babimost - EPZG

EPZG 260730Z 25008KT 9999 FEW010 OVC031 04/03 Q1021

Décodage du METAR de l'aéroport Zielona Gora Babimost (PL)

METAR émis par EPZG le jeudi 26 décembre 2019 à 07:30 heure TU. Attention ce METAR est obsolète car il a été émis il y a 13 heure et 11 minutes.

La visibilité est de supérieure à 10 km=supérieure à 6.2 sm.

La température est de 4°C=39 °F et le point rosée est de 3°C=37 °F . Ce qui correspond à 93% d'humidité relative.

Le QNH est de 1021 hPa=30.15 inHg

Vent de 8 kt=15 km/h, orienté à 250°.

Nuages : Quelques nuages à 1000 ft=300 mètres. Couverture nuageuse soudée à 3100 ft=940 mètres.

TAF de l'aéroport Zielona Gora Babimost - EPZG

EPZG 260530Z 2606/2615 26010KT 9999 BKN020 TEMPO 2606/2609 RA DZ BKN008 TEMPO 2609/2615 RA DZ BKN010

EPZG 260530Z 2606/2615 26010KT 9999 couverture nuageuse fragmentée à 020 temporairement 2606/2609 pluie bruine couverture nuageuse fragmentée à 008 temporairement 2609/2615 pluie bruine couverture nuageuse fragmentée à 010

Aéroport à proximité de Zielona Gora Babimost

Météo générale à 5 jours à Świebodzin (21.7 km)EPZP Aéroport Zilona Gora Przylep (29 km)EPLS Aéroport Leszno Strzyewice (60 km)EPZN Aéroport Zagan (63 km)EPPO Aéroport Poznan Lawica (77 km)EPKS Aéroport Krzesiny (82 km)EDAE Aéroport Eisenhuettenstadt (83 km)

Vue aérienne de l'aéroport Zielona Gora Babimost

NOTAM de l'aéroport Zielona Gora Babimost

Les NOTAM sont fournis sans aucune garantie de leur actualité. Le pilote est le seul responsable de la vérification de sa validité avant de l'utiliser opérationnellement pour préparer un vol ou l'utiliser lors de sa navigation.

Pas de NOTAM

Sources des données